Ana Sayfa
METAR-TAF:

METAR-TAF

Havaalanları :

Meridian Regional Airport (Key Field)

Meridian, Mississipi, Amerika Birleşik Devletleri

Enlem: 32-20-17N, Boylam: 088-44-52W, yükseklik: 90 m

Güncel hava durumu gözlemi

Rapor saat 07:58 UTC de 27 dakika önce yapıldı.
Sakin rüzgar
Sıcaklık 24°C
Nem 94%
Basınç 1014 hPa
Açık gökyüzü

METAR: KMEI 250758Z AUTO 00000KT CLR 24/23 A2993 RMK AO2 SLP130 T02440228 $

Saat: 03:25 (08:25 UTC)

Tahmin

Rapor saat 05:22 UTC de 3 saat ve 3 dakika önce yapıldı.
Ayın 25'si saat 06 UTC'den ayın 26'si saat 06 UTC'ye kadar geçerli Tahmin
Rüzgar güney/güneybatıdan 5 kt
Görüş mesafesi: 10 km
5000 ft yükseklikte az bulutlu

TAF: KMEI 250522Z 2506/2606 21005KT P6SM FEW050

4.000'den fazla havaalanı için hava durumu gözlemleri ve tahminleri (METAR ve TAF raporları).

Kullanılabilir istasyonlar harita üzerinde sarı ve kırmızı noktalarla gösterilir.

İstasyonun adını görmek için fareyi noktanın üzerinde gezdirin.

Sonrasında hava gözlem ve tahminlerini görmek için tıklayın.

Haritayı değiştirmek için: yaklaştırmak için siyah artı işaretli yeşil düğmeye ve uzaklaştırmak için de eksi işaretli düğmeye hızla tıklayın; bitişik haritalar için yeşil okları kullanın.


METAR-TAF: